Time;durP1;ratioP1;P1;durP2;ratioP2;P2;SDS_P1;SDS_P2;PMS_P1;PMS_P2;Temp;Humidity;BMP_temperature;BMP_pressure;BME280_temperature;BME280_humidity;BME280_pressure;Samples;Min_cycle;Max_cycle;Signal;HPM_P1;HPM_P2
2022/09/11 00:02:02;;;;;;;20.98;15.75;;;;;;;;;;5014965;28;20268;-74
2022/09/11 00:04:27;;;;;;;22.88;16.10;;;;;;;;;;5016729;28;20179;-74
2022/09/11 00:06:52;;;;;;;21.83;16.40;;;;;;;;;;5011878;28;20175;-74
2022/09/11 00:09:18;;;;;;;22.52;16.13;;;;;;;;;;5009213;28;20642;-74
2022/09/11 00:11:43;;;;;;;25.48;17.63;;;;;;;;;;5010157;28;20214;-74
2022/09/11 00:14:10;;;;;;;23.60;17.33;;;;;;;;;;5001140;28;20660;-74
2022/09/11 00:16:37;;;;;;;27.00;18.15;;;;;;;;;;5017051;28;20182;-73
2022/09/11 00:19:07;;;;;;;26.60;17.58;;;;;;;;;;5011766;28;20179;-74
2022/09/11 00:21:32;;;;;;;22.80;17.95;;;;;;;;;;5018053;28;20210;-73
2022/09/11 00:23:58;;;;;;;23.52;17.38;;;;;;;;;;4994563;28;20179;-74
2022/09/11 00:26:23;;;;;;;23.52;17.67;;;;;;;;;;5012175;28;20175;-74
2022/09/11 00:28:49;;;;;;;25.85;18.55;;;;;;;;;;5011379;28;20175;-74
2022/09/11 00:31:19;;;;;;;24.95;18.95;;;;;;;;;;5022263;28;20586;-75
2022/09/11 00:33:44;;;;;;;28.33;18.70;;;;;;;;;;5013245;28;20675;-75
2022/09/11 00:36:11;;;;;;;26.55;19.48;;;;;;;;;;5019246;28;20269;-74
2022/09/11 00:38:36;;;;;;;26.77;18.60;;;;;;;;;;5025281;28;20265;-74
2022/09/11 00:41:03;;;;;;;24.30;18.25;;;;;;;;;;5014002;28;20282;-74
2022/09/11 00:43:48;;;;;;;22.65;16.48;;;;;;;;;;5001303;28;20186;-74
2022/09/11 00:46:13;;;;;;;23.40;16.38;;;;;;;;;;5019233;28;20175;-73
2022/09/11 00:48:39;;;;;;;24.20;16.80;;;;;;;;;;5014524;28;20241;-73
2022/09/11 00:51:04;;;;;;;23.35;16.92;;;;;;;;;;5010122;28;20217;-73
2022/09/11 00:53:30;;;;;;;21.90;15.95;;;;;;;;;;5009959;28;20245;-73
2022/09/11 00:55:57;;;;;;;24.70;17.45;;;;;;;;;;5008113;28;20187;-73
2022/09/11 00:58:24;;;;;;;23.52;17.90;;;;;;;;;;5013585;28;20210;-73
2022/09/11 01:00:51;;;;;;;23.27;17.35;;;;;;;;;;5009087;28;20282;-73
2022/09/11 01:03:16;;;;;;;25.33;17.83;;;;;;;;;;4992475;28;20175;-75
2022/09/11 01:05:43;;;;;;;20.92;15.75;;;;;;;;;;5000268;28;20594;-74
2022/09/11 01:08:09;;;;;;;24.98;17.70;;;;;;;;;;5009140;28;20274;-75
2022/09/11 01:10:45;;;;;;;22.10;15.98;;;;;;;;;;4998816;28;20585;-75
2022/09/11 01:13:33;;;;;;;22.48;16.02;;;;;;;;;;5004678;28;20197;-75
2022/09/11 01:16:05;;;;;;;21.15;14.60;;;;;;;;;;4973548;28;20226;-74
2022/09/11 01:18:38;;;;;;;23.60;16.55;;;;;;;;;;5017736;28;20178;-74
2022/09/11 01:21:14;;;;;;;24.58;16.55;;;;;;;;;;4994806;28;20203;-74
2022/09/11 01:23:39;;;;;;;23.60;15.57;;;;;;;;;;5026308;28;20660;-74
2022/09/11 01:26:22;;;;;;;26.35;17.40;;;;;;;;;;5013330;28;20182;-74
2022/09/11 01:28:55;;;;;;;26.92;17.83;;;;;;;;;;5012407;28;20182;-74
2022/09/11 01:31:23;;;;;;;28.92;19.50;;;;;;;;;;5016024;28;20202;-74
2022/09/11 01:33:59;;;;;;;28.00;20.10;;;;;;;;;;5015558;28;20182;-74
2022/09/11 01:36:43;;;;;;;25.90;17.77;;;;;;;;;;5013498;28;20175;-75
2022/09/11 01:39:08;;;;;;;26.35;18.63;;;;;;;;;;5008687;28;20669;-74
2022/09/11 01:41:49;;;;;;;23.98;17.55;;;;;;;;;;5027517;28;20218;-74
2022/09/11 01:44:17;;;;;;;25.88;18.58;;;;;;;;;;5008254;28;20178;-73
2022/09/11 01:46:48;;;;;;;28.27;19.58;;;;;;;;;;5010180;28;20373;-73
2022/09/11 01:49:16;;;;;;;27.77;19.02;;;;;;;;;;5011075;28;20178;-73
2022/09/11 01:51:42;;;;;;;25.65;18.08;;;;;;;;;;5012407;28;20230;-74
2022/09/11 01:54:09;;;;;;;25.65;18.17;;;;;;;;;;5018794;28;20238;-73
2022/09/11 01:56:39;;;;;;;23.75;18.05;;;;;;;;;;5013353;28;20183;-74
2022/09/11 01:59:06;;;;;;;27.63;18.33;;;;;;;;;;5018170;28;20648;-73
2022/09/11 02:01:35;;;;;;;26.35;18.63;;;;;;;;;;5017690;28;20210;-74
2022/09/11 02:04:06;;;;;;;26.20;17.67;;;;;;;;;;5013741;28;20660;-74
2022/09/11 02:06:54;;;;;;;25.90;19.08;;;;;;;;;;5012757;28;20206;-74
2022/09/11 02:09:21;;;;;;;29.85;18.17;;;;;;;;;;5013379;28;20183;-74
2022/09/11 02:11:48;;;;;;;31.17;19.17;;;;;;;;;;5009532;28;20680;-73
2022/09/11 02:14:21;;;;;;;29.60;19.45;;;;;;;;;;5023906;28;20194;-75
2022/09/11 02:17:00;;;;;;;29.35;18.92;;;;;;;;;;5015884;28;20565;-74
2022/09/11 02:19:27;;;;;;;28.00;18.35;;;;;;;;;;5007180;28;20274;-73
2022/09/11 02:21:52;;;;;;;29.90;20.50;;;;;;;;;;5009179;28;20257;-73
2022/09/11 02:24:18;;;;;;;27.95;19.20;;;;;;;;;;5013860;28;20175;-73
2022/09/11 02:26:46;;;;;;;25.58;17.52;;;;;;;;;;5004881;28;20182;-73
2022/09/11 02:29:12;;;;;;;26.48;17.00;;;;;;;;;;5010549;28;20683;-73
2022/09/11 02:31:37;;;;;;;36.97;21.27;;;;;;;;;;5010602;28;20207;-74
2022/09/11 02:34:03;;;;;;;26.85;17.77;;;;;;;;;;5011495;28;20236;-75
2022/09/11 02:36:31;;;;;;;24.90;16.63;;;;;;;;;;5012142;28;20214;-75
2022/09/11 02:39:14;;;;;;;29.27;19.05;;;;;;;;;;5012675;28;20226;-75
2022/09/11 02:41:59;;;;;;;32.10;19.38;;;;;;;;;;5014208;28;20206;-74
2022/09/11 02:44:34;;;;;;;27.55;17.08;;;;;;;;;;5015710;28;20179;-75
2022/09/11 02:47:17;;;;;;;29.42;17.80;;;;;;;;;;5012703;28;20558;-75
2022/09/11 02:49:50;;;;;;;25.17;17.20;;;;;;;;;;5012596;28;20727;-75
2022/09/11 02:52:16;;;;;;;27.08;18.52;;;;;;;;;;5011388;28;20246;-74
2022/09/11 02:54:44;;;;;;;31.50;20.50;;;;;;;;;;5011761;28;20258;-74
2022/09/11 02:57:12;;;;;;;24.83;17.00;;;;;;;;;;5017794;28;20186;-74
2022/09/11 02:59:41;;;;;;;29.65;19.63;;;;;;;;;;5012424;28;20191;-74
2022/09/11 03:02:08;;;;;;;30.05;18.30;;;;;;;;;;5011455;28;20273;-74
2022/09/11 03:04:35;;;;;;;24.35;17.75;;;;;;;;;;5012026;28;20265;-74
2022/09/11 03:07:01;;;;;;;31.67;21.15;;;;;;;;;;5003804;28;20202;-74
2022/09/11 03:09:26;;;;;;;28.98;18.33;;;;;;;;;;4992711;28;20656;-74
2022/09/11 03:11:51;;;;;;;29.52;19.88;;;;;;;;;;5004109;28;20215;-74
2022/09/11 03:14:16;;;;;;;35.28;21.45;;;;;;;;;;5009972;28;20233;-74
2022/09/11 03:16:42;;;;;;;30.10;19.52;;;;;;;;;;5010646;28;20183;-74
2022/09/11 03:19:07;;;;;;;30.88;19.58;;;;;;;;;;5013272;28;20592;-74
2022/09/11 03:21:33;;;;;;;28.85;18.45;;;;;;;;;;5012021;28;20207;-74
2022/09/11 03:23:59;;;;;;;34.88;20.25;;;;;;;;;;4992576;28;20202;-74
2022/09/11 03:26:24;;;;;;;32.80;20.05;;;;;;;;;;5011558;28;20652;-74
2022/09/11 03:28:49;;;;;;;35.08;21.27;;;;;;;;;;5011042;28;20670;-75
2022/09/11 03:31:15;;;;;;;31.55;20.38;;;;;;;;;;5011058;28;20210;-74
2022/09/11 03:33:41;;;;;;;30.30;19.17;;;;;;;;;;5017132;28;20316;-74
2022/09/11 03:36:06;;;;;;;29.65;18.23;;;;;;;;;;4999845;28;20179;-74
2022/09/11 03:38:31;;;;;;;31.67;19.40;;;;;;;;;;5012783;28;20233;-74
2022/09/11 03:40:57;;;;;;;30.30;19.63;;;;;;;;;;5013504;28;20293;-74
2022/09/11 03:43:22;;;;;;;31.83;20.15;;;;;;;;;;5017493;28;20183;-75
2022/09/11 03:45:48;;;;;;;31.63;20.48;;;;;;;;;;5011129;28;20313;-75
2022/09/11 03:48:13;;;;;;;33.90;21.30;;;;;;;;;;5009070;28;20546;-74
2022/09/11 03:50:39;;;;;;;32.53;19.48;;;;;;;;;;5020814;28;20292;-74
2022/09/11 03:53:04;;;;;;;31.13;18.42;;;;;;;;;;5011351;28;20269;-73
2022/09/11 03:55:30;;;;;;;29.75;18.52;;;;;;;;;;5009955;28;20175;-74
2022/09/11 03:57:57;;;;;;;35.40;20.52;;;;;;;;;;4996338;28;20210;-74
2022/09/11 04:00:22;;;;;;;30.92;18.40;;;;;;;;;;5010671;28;20285;-74
2022/09/11 04:02:47;;;;;;;30.20;18.45;;;;;;;;;;5009534;28;20708;-74
2022/09/11 04:05:12;;;;;;;31.63;20.63;;;;;;;;;;5015848;28;20186;-74
2022/09/11 04:07:37;;;;;;;31.17;19.52;;;;;;;;;;4996455;28;20170;-73
2022/09/11 04:10:03;;;;;;;29.23;17.55;;;;;;;;;;5015365;28;20225;-74
2022/09/11 04:12:28;;;;;;;27.80;16.45;;;;;;;;;;4999830;28;20278;-74
2022/09/11 04:14:53;;;;;;;23.60;14.82;;;;;;;;;;5007368;28;20222;-74
2022/09/11 04:17:18;;;;;;;21.38;13.70;;;;;;;;;;5008920;28;20198;-74
2022/09/11 04:19:44;;;;;;;17.95;12.02;;;;;;;;;;5019883;28;20187;-74
2022/09/11 04:22:09;;;;;;;19.27;12.65;;;;;;;;;;5011240;28;20209;-74
2022/09/11 04:24:34;;;;;;;20.10;12.95;;;;;;;;;;5009631;28;20244;-74
2022/09/11 04:26:59;;;;;;;16.90;11.18;;;;;;;;;;5009066;28;20649;-74
2022/09/11 04:29:25;;;;;;;16.50;12.02;;;;;;;;;;5010024;28;20179;-74
2022/09/11 04:31:50;;;;;;;17.52;12.07;;;;;;;;;;5021755;28;20213;-74
2022/09/11 04:34:15;;;;;;;15.57;11.32;;;;;;;;;;5008851;28;20194;-74
2022/09/11 04:36:40;;;;;;;16.65;10.57;;;;;;;;;;5009670;28;20257;-74
2022/09/11 04:39:06;;;;;;;16.50;10.90;;;;;;;;;;5006931;28;20226;-73
2022/09/11 04:41:31;;;;;;;19.27;11.77;;;;;;;;;;5011824;28;20205;-74
2022/09/11 04:43:57;;;;;;;17.98;12.05;;;;;;;;;;5019077;28;20612;-74
2022/09/11 04:46:23;;;;;;;14.38;10.15;;;;;;;;;;5013398;28;20727;-74
2022/09/11 04:48:50;;;;;;;17.58;12.18;;;;;;;;;;5010256;28;20194;-74
2022/09/11 04:51:19;;;;;;;15.52;11.02;;;;;;;;;;5011329;28;20199;-74
2022/09/11 04:53:45;;;;;;;18.33;12.48;;;;;;;;;;5012648;28;20215;-74
2022/09/11 04:56:13;;;;;;;19.83;13.77;;;;;;;;;;5013389;28;20213;-74
2022/09/11 04:58:39;;;;;;;22.10;13.93;;;;;;;;;;5014805;28;20678;-74
2022/09/11 05:01:08;;;;;;;27.15;16.33;;;;;;;;;;5017304;28;20203;-74
2022/09/11 05:03:33;;;;;;;24.48;16.02;;;;;;;;;;5014831;28;20261;-75
2022/09/11 05:06:03;;;;;;;24.23;15.32;;;;;;;;;;5014798;28;20266;-74
2022/09/11 05:08:28;;;;;;;25.55;16.10;;;;;;;;;;5018747;28;20660;-74
2022/09/11 05:10:54;;;;;;;30.25;17.45;;;;;;;;;;5014648;28;20222;-72
2022/09/11 05:13:19;;;;;;;28.80;17.75;;;;;;;;;;5003544;28;20279;-72
2022/09/11 05:15:44;;;;;;;33.05;17.80;;;;;;;;;;5012000;28;20183;-71
2022/09/11 05:18:10;;;;;;;62.50;19.00;;;;;;;;;;5002181;28;20705;-72
2022/09/11 05:20:35;;;;;;;33.58;18.88;;;;;;;;;;5011166;28;20199;-72
2022/09/11 05:23:00;;;;;;;40.72;20.08;;;;;;;;;;5001607;28;20220;-72
2022/09/11 05:25:28;;;;;;;36.63;19.67;;;;;;;;;;5012564;28;20211;-72
2022/09/11 05:27:53;;;;;;;29.33;18.08;;;;;;;;;;5013414;28;20695;-73
2022/09/11 05:30:18;;;;;;;37.28;20.77;;;;;;;;;;5017759;28;20202;-72
2022/09/11 05:32:43;;;;;;;34.72;17.38;;;;;;;;;;5016535;28;20187;-73
2022/09/11 05:35:08;;;;;;;37.03;18.30;;;;;;;;;;5013580;28;20675;-73
2022/09/11 05:37:33;;;;;;;34.08;18.85;;;;;;;;;;5011108;28;20198;-71
2022/09/11 05:39:59;;;;;;;33.72;18.30;;;;;;;;;;5020388;28;20599;-72
2022/09/11 05:42:27;;;;;;;29.55;17.17;;;;;;;;;;5010164;28;20294;-71
2022/09/11 05:44:52;;;;;;;27.98;17.02;;;;;;;;;;5011704;28;20171;-72
2022/09/11 05:47:17;;;;;;;29.80;16.65;;;;;;;;;;4989660;28;20187;-72
2022/09/11 05:49:43;;;;;;;26.92;16.67;;;;;;;;;;5014409;28;20175;-73
2022/09/11 05:52:08;;;;;;;32.83;19.30;;;;;;;;;;5014010;28;20221;-72
2022/09/11 05:54:33;;;;;;;28.08;16.63;;;;;;;;;;5013813;28;20168;-73
2022/09/11 05:57:01;;;;;;;29.20;17.10;;;;;;;;;;5013320;28;20591;-73
2022/09/11 05:59:26;;;;;;;30.98;18.42;;;;;;;;;;5011297;28;20207;-72
2022/09/11 06:01:52;;;;;;;27.25;17.08;;;;;;;;;;5007733;28;20718;-73
2022/09/11 06:04:17;;;;;;;24.83;16.08;;;;;;;;;;5011111;28;20181;-73
2022/09/11 06:06:43;;;;;;;24.42;15.43;;;;;;;;;;5015257;28;20179;-73
2022/09/11 06:09:08;;;;;;;21.77;14.05;;;;;;;;;;5013121;28;20183;-72
2022/09/11 06:11:33;;;;;;;27.27;14.13;;;;;;;;;;5013326;28;20215;-73
2022/09/11 06:13:59;;;;;;;35.08;15.93;;;;;;;;;;5012767;28;20191;-73
2022/09/11 06:16:25;;;;;;;23.70;14.60;;;;;;;;;;5011716;28;20183;-72
2022/09/11 06:18:51;;;;;;;19.65;13.23;;;;;;;;;;5021204;28;20193;-72
2022/09/11 06:21:18;;;;;;;18.65;13.55;;;;;;;;;;5021352;28;20209;-72
2022/09/11 06:23:44;;;;;;;17.67;12.05;;;;;;;;;;5010728;28;20179;-72
2022/09/11 06:26:13;;;;;;;16.42;10.80;;;;;;;;;;5012326;28;20171;-72
2022/09/11 06:28:39;;;;;;;30.35;10.90;;;;;;;;;;5014881;28;20174;-72
2022/09/11 06:31:05;;;;;;;16.98;9.73;;;;;;;;;;5010986;28;20209;-71
2022/09/11 06:33:34;;;;;;;22.77;12.35;;;;;;;;;;5017834;28;20183;-72
2022/09/11 06:36:01;;;;;;;23.27;9.35;;;;;;;;;;5017385;28;20557;-72
2022/09/11 06:38:27;;;;;;;14.73;10.95;;;;;;;;;;4994591;28;20243;-72
2022/09/11 06:40:52;;;;;;;14.85;11.88;;;;;;;;;;5010876;28;20650;-72
2022/09/11 06:43:18;;;;;;;20.17;10.82;;;;;;;;;;5008231;28;20187;-72
2022/09/11 06:45:44;;;;;;;10.98;9.10;;;;;;;;;;5011163;28;20206;-72
2022/09/11 06:48:10;;;;;;;12.75;10.52;;;;;;;;;;5011121;28;20667;-71
2022/09/11 06:50:39;;;;;;;11.10;9.50;;;;;;;;;;5016175;28;20193;-72
2022/09/11 06:53:05;;;;;;;12.50;10.10;;;;;;;;;;5012474;28;20187;-72
2022/09/11 06:55:30;;;;;;;13.98;10.40;;;;;;;;;;5021225;28;20170;-72
2022/09/11 06:57:55;;;;;;;16.08;10.35;;;;;;;;;;5011795;28;20205;-72
2022/09/11 07:00:21;;;;;;;13.77;10.73;;;;;;;;;;5010866;28;20199;-71
2022/09/11 07:02:46;;;;;;;13.07;9.70;;;;;;;;;;4985520;28;21035;-71
2022/09/11 07:05:12;;;;;;;12.15;9.98;;;;;;;;;;5008783;28;20420;-72
2022/09/11 07:07:38;;;;;;;13.75;11.15;;;;;;;;;;4995018;28;20616;-72
2022/09/11 07:10:03;;;;;;;13.38;11.13;;;;;;;;;;5007930;28;20239;-72
2022/09/11 07:12:29;;;;;;;13.88;11.57;;;;;;;;;;5011745;28;20195;-73
2022/09/11 07:14:55;;;;;;;15.18;11.27;;;;;;;;;;5015106;28;20179;-72
2022/09/11 07:17:20;;;;;;;16.90;12.18;;;;;;;;;;5009225;28;20179;-72
2022/09/11 07:19:45;;;;;;;13.95;11.63;;;;;;;;;;4994719;28;20193;-72
2022/09/11 07:22:10;;;;;;;14.90;11.80;;;;;;;;;;5019036;28;20244;-72
2022/09/11 07:24:35;;;;;;;14.47;11.80;;;;;;;;;;5018230;28;20433;-72
2022/09/11 07:27:00;;;;;;;15.70;12.37;;;;;;;;;;5010569;28;20511;-72
2022/09/11 07:29:26;;;;;;;14.20;11.60;;;;;;;;;;5010830;28;20988;-71
2022/09/11 07:31:51;;;;;;;13.15;11.15;;;;;;;;;;4991237;28;21701;-72
2022/09/11 07:34:16;;;;;;;14.45;11.45;;;;;;;;;;4994067;28;20206;-72
2022/09/11 07:36:41;;;;;;;11.90;10.57;;;;;;;;;;5019726;28;20189;-72
2022/09/11 07:39:06;;;;;;;11.60;10.37;;;;;;;;;;5020414;28;20244;-72
2022/09/11 07:41:32;;;;;;;12.38;11.07;;;;;;;;;;5018594;28;20447;-73
2022/09/11 07:43:59;;;;;;;13.47;11.37;;;;;;;;;;5011039;28;20188;-70
2022/09/11 07:46:25;;;;;;;11.40;10.10;;;;;;;;;;5009483;28;20417;-70
2022/09/11 07:48:51;;;;;;;13.55;11.15;;;;;;;;;;5017249;28;20187;-69
2022/09/11 07:51:17;;;;;;;13.23;11.68;;;;;;;;;;5018094;28;20198;-70
2022/09/11 07:53:47;;;;;;;10.90;9.02;;;;;;;;;;5008038;28;20452;-70
2022/09/11 07:56:13;;;;;;;12.63;11.32;;;;;;;;;;5010872;28;20174;-70
2022/09/11 07:58:39;;;;;;;14.57;12.20;;;;;;;;;;5011396;28;20550;-68
2022/09/11 08:01:05;;;;;;;14.05;11.88;;;;;;;;;;5010946;28;20219;-70
2022/09/11 08:03:31;;;;;;;11.25;10.05;;;;;;;;;;5004212;28;20186;-70
2022/09/11 08:05:57;;;;;;;15.18;11.88;;;;;;;;;;5006674;28;20179;-70
2022/09/11 08:08:23;;;;;;;12.98;11.63;;;;;;;;;;5009645;28;20190;-69
2022/09/11 08:10:48;;;;;;;12.52;11.23;;;;;;;;;;5005029;28;20222;-70
2022/09/11 08:13:13;;;;;;;11.77;10.33;;;;;;;;;;5009589;28;20249;-70
2022/09/11 08:15:44;;;;;;;12.50;11.20;;;;;;;;;;5012800;28;20402;-69
2022/09/11 08:18:09;;;;;;;12.02;10.80;;;;;;;;;;5007366;28;20179;-68
2022/09/11 08:20:35;;;;;;;10.02;9.02;;;;;;;;;;5010265;28;20194;-69
2022/09/11 08:23:00;;;;;;;10.90;9.80;;;;;;;;;;5016302;28;20229;-70
2022/09/11 08:25:27;;;;;;;11.70;9.53;;;;;;;;;;5011888;28;20179;-69
2022/09/11 08:27:52;;;;;;;10.23;9.23;;;;;;;;;;5016210;28;20430;-70
2022/09/11 08:30:17;;;;;;;9.43;8.53;;;;;;;;;;5014047;28;20615;-69
2022/09/11 08:32:43;;;;;;;9.37;8.47;;;;;;;;;;5009438;28;20964;-71
2022/09/11 08:35:08;;;;;;;8.73;7.93;;;;;;;;;;5004553;28;20432;-69
2022/09/11 08:37:33;;;;;;;10.43;9.35;;;;;;;;;;5004811;28;20590;-70
2022/09/11 08:39:59;;;;;;;8.67;7.13;;;;;;;;;;5007166;28;20695;-70
2022/09/11 08:42:27;;;;;;;9.43;8.52;;;;;;;;;;5008337;28;20456;-68
2022/09/11 08:44:56;;;;;;;9.18;8.27;;;;;;;;;;5007686;28;20209;-69
2022/09/11 08:47:25;;;;;;;11.27;8.90;;;;;;;;;;5009249;28;20265;-70
2022/09/11 08:50:00;;;;;;;9.30;8.30;;;;;;;;;;5014436;28;20207;-69
2022/09/11 08:52:26;;;;;;;8.35;7.55;;;;;;;;;;5014287;28;20170;-69
2022/09/11 08:54:53;;;;;;;8.98;7.50;;;;;;;;;;5006889;28;20193;-69
2022/09/11 08:57:18;;;;;;;8.38;7.57;;;;;;;;;;5019584;28;20206;-69
2022/09/11 08:59:55;;;;;;;9.70;8.20;;;;;;;;;;5017279;28;20225;-70
2022/09/11 09:02:20;;;;;;;8.50;7.50;;;;;;;;;;5011738;28;20216;-69
2022/09/11 09:04:45;;;;;;;8.57;7.70;;;;;;;;;;5010116;28;20178;-69
2022/09/11 09:07:17;;;;;;;9.37;8.37;;;;;;;;;;5018708;28;20994;-70
2022/09/11 09:09:52;;;;;;;9.70;7.95;;;;;;;;;;5006872;28;20183;-70
2022/09/11 09:12:26;;;;;;;8.40;7.60;;;;;;;;;;5006124;28;20189;-68
2022/09/11 09:15:01;;;;;;;8.43;7.55;;;;;;;;;;5005121;28;20194;-69
2022/09/11 09:17:30;;;;;;;8.38;7.45;;;;;;;;;;5012324;28;20181;-69
2022/09/11 09:19:56;;;;;;;8.93;7.25;;;;;;;;;;5009446;28;20687;-70
2022/09/11 09:22:41;;;;;;;7.43;6.70;;;;;;;;;;5006975;28;20206;-69
2022/09/11 09:25:10;;;;;;;8.35;7.45;;;;;;;;;;5013461;28;20174;-69
2022/09/11 09:27:38;;;;;;;6.80;5.70;;;;;;;;;;5006421;28;20183;-69
2022/09/11 09:30:05;;;;;;;6.63;5.90;;;;;;;;;;5009878;28;20202;-70
2022/09/11 09:32:33;;;;;;;7.75;6.50;;;;;;;;;;5010927;28;20661;-69
2022/09/11 09:35:06;;;;;;;6.97;6.15;;;;;;;;;;5008076;28;20194;-69
2022/09/11 09:37:32;;;;;;;7.82;6.95;;;;;;;;;;5011524;28;20202;-70
2022/09/11 09:39:59;;;;;;;6.53;5.93;;;;;;;;;;4995630;28;20202;-69
2022/09/11 09:42:27;;;;;;;6.97;6.15;;;;;;;;;;5011412;28;20696;-70
2022/09/11 09:45:00;;;;;;;7.20;5.38;;;;;;;;;;5015965;28;20179;-69
2022/09/11 09:47:25;;;;;;;4.97;4.55;;;;;;;;;;5010574;28;20171;-69
2022/09/11 09:49:51;;;;;;;4.72;4.15;;;;;;;;;;5014964;28;20198;-69
2022/09/11 09:52:18;;;;;;;6.97;6.05;;;;;;;;;;5023596;28;20616;-69
2022/09/11 09:54:50;;;;;;;6.75;5.85;;;;;;;;;;5011955;28;20193;-69
2022/09/11 09:57:16;;;;;;;5.25;4.75;;;;;;;;;;5017501;28;20547;-70
2022/09/11 09:59:54;;;;;;;5.97;4.57;;;;;;;;;;5013271;28;20179;-68
2022/09/11 10:02:37;;;;;;;5.07;4.38;;;;;;;;;;5013719;28;20716;-69
2022/09/11 10:05:28;;;;;;;6.15;4.22;;;;;;;;;;5011781;28;20207;-70
2022/09/11 10:07:57;;;;;;;5.38;4.88;;;;;;;;;;5011575;28;20198;-69
2022/09/11 10:10:22;;;;;;;4.20;3.80;;;;;;;;;;5009789;28;20608;-70
2022/09/11 10:12:48;;;;;;;5.43;3.95;;;;;;;;;;5019973;28;20179;-69
2022/09/11 10:15:24;;;;;;;4.63;3.88;;;;;;;;;;5018053;28;20190;-69
2022/09/11 10:17:51;;;;;;;4.25;3.17;;;;;;;;;;5016904;28;20249;-69
2022/09/11 10:20:22;;;;;;;6.40;3.35;;;;;;;;;;5001137;28;20214;-70
2022/09/11 10:22:48;;;;;;;5.00;2.80;;;;;;;;;;5004464;28;20232;-70
2022/09/11 10:25:14;;;;;;;6.53;4.07;;;;;;;;;;5010502;28;20199;-69
2022/09/11 10:27:40;;;;;;;3.75;3.20;;;;;;;;;;5011221;28;20183;-70
2022/09/11 10:30:22;;;;;;;4.10;3.70;;;;;;;;;;5013570;28;20229;-68
2022/09/11 10:32:47;;;;;;;5.07;3.20;;;;;;;;;;5017724;28;20424;-70
2022/09/11 10:35:15;;;;;;;3.43;3.13;;;;;;;;;;5022085;28;20189;-69
2022/09/11 10:37:41;;;;;;;3.55;3.25;;;;;;;;;;5010970;28;20449;-69
2022/09/11 10:40:17;;;;;;;4.63;4.10;;;;;;;;;;5013060;28;20622;-69
2022/09/11 10:42:43;;;;;;;4.15;2.90;;;;;;;;;;5014882;28;20212;-69
2022/09/11 10:45:16;;;;;;;4.18;3.78;;;;;;;;;;5009485;28;20178;-69
2022/09/11 10:47:41;;;;;;;4.03;3.58;;;;;;;;;;5016565;28;20186;-70
2022/09/11 10:50:19;;;;;;;3.90;3.15;;;;;;;;;;5012651;28;20321;-68
2022/09/11 10:52:56;;;;;;;4.15;3.10;;;;;;;;;;5007653;28;20206;-69
2022/09/11 10:55:21;;;;;;;3.33;3.03;;;;;;;;;;5003842;28;20636;-69
2022/09/11 10:57:54;;;;;;;2.17;1.95;;;;;;;;;;5016182;28;20260;-68
2022/09/11 11:00:24;;;;;;;2.53;2.00;;;;;;;;;;5007517;28;20661;-69
2022/09/11 11:02:52;;;;;;;2.28;2.08;;;;;;;;;;5009719;28;20749;-69
2022/09/11 11:05:26;;;;;;;2.95;2.15;;;;;;;;;;5015670;28;20175;-68
2022/09/11 11:08:02;;;;;;;2.80;2.47;;;;;;;;;;5006605;28;20179;-69
2022/09/11 11:10:27;;;;;;;2.80;2.55;;;;;;;;;;5009323;28;20576;-70
2022/09/11 11:13:03;;;;;;;4.38;2.55;;;;;;;;;;5017421;28;20179;-70
2022/09/11 11:15:32;;;;;;;3.95;2.50;;;;;;;;;;4997189;28;20183;-70
2022/09/11 11:18:16;;;;;;;2.92;2.58;;;;;;;;;;5013510;28;20609;-70
2022/09/11 11:20:58;;;;;;;5.72;2.85;;;;;;;;;;5021074;28;20219;-67
2022/09/11 11:23:34;;;;;;;3.83;2.60;;;;;;;;;;4987905;28;20175;-70
2022/09/11 11:26:05;;;;;;;2.75;2.10;;;;;;;;;;5014270;28;20269;-68
2022/09/11 11:28:30;;;;;;;2.42;2.20;;;;;;;;;;5012027;28;20171;-69
2022/09/11 11:31:04;;;;;;;4.40;2.30;;;;;;;;;;5016814;28;20202;-69
2022/09/11 11:33:38;;;;;;;3.33;2.45;;;;;;;;;;5008948;28;20178;-70
2022/09/11 11:36:18;;;;;;;2.97;2.03;;;;;;;;;;5012316;28;20548;-69
2022/09/11 11:38:47;;;;;;;1.90;1.52;;;;;;;;;;5011939;28;20281;-69
2022/09/11 11:41:32;;;;;;;3.60;2.45;;;;;;;;;;5007893;28;20215;-69
2022/09/11 11:44:01;;;;;;;3.53;2.42;;;;;;;;;;5014170;28;20182;-70
2022/09/11 11:46:28;;;;;;;2.75;1.60;;;;;;;;;;5007813;28;21791;-69
2022/09/11 11:49:01;;;;;;;2.53;2.05;;;;;;;;;;5010848;28;20659;-69
2022/09/11 11:51:30;;;;;;;3.38;2.25;;;;;;;;;;5018074;28;20212;-68
2022/09/11 11:53:57;;;;;;;2.90;2.03;;;;;;;;;;5013847;28;20661;-69
2022/09/11 11:56:27;;;;;;;3.22;1.83;;;;;;;;;;5012003;28;20175;-69
2022/09/11 11:58:56;;;;;;;2.40;1.50;;;;;;;;;;5013136;28;20179;-69
2022/09/11 12:01:34;;;;;;;3.00;1.75;;;;;;;;;;5009862;28;20206;-69
2022/09/11 12:04:11;;;;;;;2.30;1.45;;;;;;;;;;5010802;28;20183;-70
2022/09/11 12:06:37;;;;;;;1.52;1.35;;;;;;;;;;5012892;28;20186;-69
2022/09/11 12:09:03;;;;;;;1.38;1.27;;;;;;;;;;5016425;28;20187;-69
2022/09/11 12:11:30;;;;;;;2.00;1.23;;;;;;;;;;5004990;28;20712;-70
2022/09/11 12:13:56;;;;;;;2.00;1.10;;;;;;;;;;5011933;28;20198;-69
2022/09/11 12:16:24;;;;;;;2.13;1.08;;;;;;;;;;5013207;28;20175;-70
2022/09/11 12:19:07;;;;;;;1.88;1.30;;;;;;;;;;5010957;28;20265;-69
2022/09/11 12:21:34;;;;;;;2.47;1.13;;;;;;;;;;5012265;28;20203;-69
2022/09/11 12:24:02;;;;;;;1.27;0.80;;;;;;;;;;5008297;28;20217;-70
2022/09/11 12:26:29;;;;;;;1.48;1.20;;;;;;;;;;5011243;28;20179;-70
2022/09/11 12:29:17;;;;;;;2.65;1.48;;;;;;;;;;5010740;28;20232;-70
2022/09/11 12:31:48;;;;;;;2.10;0.90;;;;;;;;;;5008103;28;20206;-70
2022/09/11 12:34:16;;;;;;;1.63;1.20;;;;;;;;;;5006350;28;20190;-69
2022/09/11 12:36:45;;;;;;;2.47;1.25;;;;;;;;;;5012026;28;20186;-68
2022/09/11 12:39:21;;;;;;;2.67;1.77;;;;;;;;;;5016722;28;20181;-69
2022/09/11 12:41:46;;;;;;;2.47;1.25;;;;;;;;;;5005453;28;20245;-69
2022/09/11 12:44:50;;;;;;;1.87;1.03;;;;;;;;;;4993468;28;20210;-70
2022/09/11 12:47:35;;;;;;;2.35;1.42;;;;;;;;;;5018005;28;20170;-69
2022/09/11 12:50:00;;;;;;;1.42;0.95;;;;;;;;;;5008544;28;20203;-69
2022/09/11 12:52:29;;;;;;;2.40;1.07;;;;;;;;;;5017523;28;20262;-69
2022/09/11 12:54:54;;;;;;;1.92;1.05;;;;;;;;;;4991992;28;20439;-69
2022/09/11 12:57:26;;;;;;;1.27;0.93;;;;;;;;;;5008139;28;20191;-69
2022/09/11 12:59:53;;;;;;;1.70;0.90;;;;;;;;;;5007311;28;20195;-69
2022/09/11 13:02:24;;;;;;;2.13;1.42;;;;;;;;;;5008697;28;20218;-69
2022/09/11 13:04:51;;;;;;;1.48;1.20;;;;;;;;;;5011879;28;20185;-69
2022/09/11 13:07:40;;;;;;;3.05;1.20;;;;;;;;;;4998394;28;20656;-69
2022/09/11 13:10:07;;;;;;;1.58;1.10;;;;;;;;;;5006343;28;20211;-70
2022/09/11 13:12:49;;;;;;;2.03;1.08;;;;;;;;;;5010504;28;20186;-69
2022/09/11 13:15:30;;;;;;;2.35;1.38;;;;;;;;;;4993313;28;20186;-70
2022/09/11 13:17:55;;;;;;;1.77;1.20;;;;;;;;;;5009660;28;20537;-69
2022/09/11 13:20:21;;;;;;;2.70;1.27;;;;;;;;;;5015897;28;20225;-70
2022/09/11 13:22:46;;;;;;;2.78;1.55;;;;;;;;;;5021062;28;20897;-69
2022/09/11 13:25:13;;;;;;;1.87;1.00;;;;;;;;;;5009642;28;20175;-70
2022/09/11 13:27:43;;;;;;;1.85;1.10;;;;;;;;;;5020073;28;20430;-69
2022/09/11 13:30:10;;;;;;;1.95;1.30;;;;;;;;;;5015986;28;20190;-70
2022/09/11 13:32:35;;;;;;;2.13;1.20;;;;;;;;;;5018959;28;20286;-69
2022/09/11 13:35:23;;;;;;;1.63;1.30;;;;;;;;;;5012033;28;20186;-70
2022/09/11 13:37:54;;;;;;;1.98;1.23;;;;;;;;;;5013744;28;20424;-70
2022/09/11 13:40:24;;;;;;;1.65;1.10;;;;;;;;;;5021389;28;20225;-69
2022/09/11 13:42:49;;;;;;;2.25;1.23;;;;;;;;;;5020622;28;20297;-70
2022/09/11 13:45:16;;;;;;;1.60;1.10;;;;;;;;;;5018145;28;20266;-70
2022/09/11 13:47:42;;;;;;;1.05;0.80;;;;;;;;;;5013380;28;20179;-70
2022/09/11 13:50:11;;;;;;;2.03;1.30;;;;;;;;;;5010883;28;20206;-69
2022/09/11 13:52:37;;;;;;;1.92;1.15;;;;;;;;;;5018255;28;20191;-68
2022/09/11 13:55:08;;;;;;;1.77;1.30;;;;;;;;;;5017193;28;20189;-70
2022/09/11 13:57:48;;;;;;;3.10;1.35;;;;;;;;;;5020845;28;20183;-70
2022/09/11 14:00:33;;;;;;;1.88;1.20;;;;;;;;;;5016255;28;20237;-70
2022/09/11 14:02:59;;;;;;;2.92;1.40;;;;;;;;;;5012712;28;20226;-70
2022/09/11 14:05:25;;;;;;;4.10;1.50;;;;;;;;;;5012368;28;20261;-70
2022/09/11 14:08:06;;;;;;;2.85;1.20;;;;;;;;;;5010202;28;20229;-70
2022/09/11 14:10:45;;;;;;;1.85;1.20;;;;;;;;;;5015625;28;20207;-69
2022/09/11 14:13:31;;;;;;;1.50;1.10;;;;;;;;;;5011315;28;20178;-70
2022/09/11 14:16:03;;;;;;;2.15;1.20;;;;;;;;;;5017321;28;20174;-70
2022/09/11 14:18:47;;;;;;;2.05;1.15;;;;;;;;;;5020183;28;20551;-70
2022/09/11 14:21:12;;;;;;;1.17;1.02;;;;;;;;;;5011094;28;20238;-69
2022/09/11 14:23:43;;;;;;;3.40;1.10;;;;;;;;;;5009087;28;20202;-71
2022/09/11 14:26:11;;;;;;;2.25;1.05;;;;;;;;;;5014772;28;20232;-70
2022/09/11 14:28:41;;;;;;;2.50;0.90;;;;;;;;;;5020336;28;20179;-70
2022/09/11 14:31:08;;;;;;;2.50;1.00;;;;;;;;;;5013809;28;20194;-70
2022/09/11 14:33:33;;;;;;;1.25;0.82;;;;;;;;;;5017016;28;20179;-70
2022/09/11 14:36:02;;;;;;;1.58;0.80;;;;;;;;;;5017033;28;20664;-70
2022/09/11 14:38:28;;;;;;;1.08;0.80;;;;;;;;;;5013879;28;20183;-69